Terminal Aerodrome Forecast
Issued by NWS Melbourne, FL

Home | Current Version | Previous Version | Text Only | Print | Product List | Glossary On
Versions: 1 2 3 4 5 6 7 8 9 10 11 12 13
000
FTUS42 KMLB 041736
TAFMLB
TAF
KMLB 041736Z 0418/0518 21007KT P6SM SCT040 SCT250
     FM041900 10005KT P6SM SCT040 SCT250
     FM050000 16005KT P6SM FEW040 SCT250
     FM050600 VRB03KT P6SM SCT250=

USA.gov is the U.S. government's official web portal to all federal, state and local government web resources and services.